Pagrindinis puslapis
METAR-TAF:

METAR-TAF

Oro uostai :

Destin-Fort Walton Beach Airport

Destin, Florida, Jungtinės Amerikos Valstijos

platuma: 30-23-36N, ilguma: 086-28-03W, Aukštis: 6 m

Dabartinis oras

Ataskaita buvo paskelbta 40 minutes, ne 16:53 UTC
Vėjas 6 kt iš Šiaurės/Šiaurės Rytų
Temperatūra 20°C
Drėgmė 49%
Slėgis 1016 hPa
Matomumas: 16.1 km
Giedras dangus

METAR: KDTS 171653Z 03006KT 10SM CLR 20/09 A3001 RMK AO2 SLP161 T02000089

Laikas: 12:33 (17:33 UTC)


TAF: trūkstamas

Orai ataskaitas ir orų prognozės (METAR, TAF).

turimą stotys yra geltonos ir raudonos taškus žemėlapyje.

Perkelti pele per norėdami pamatyti stoties vardą.

Tada spustelėkite, norėdami matyti oro stebėjimo ir prognozės.

Norėdami pakeisti žemėlapį: spustelėkite ant žalios mygtukų su juodo kryžiaus žemyn,; žalią mygtuką su brūkšneliu, jei norite nutolinti; arba žalių rodyklių gretimoms žemėlapius.


METAR-TAF: